Time;durP1;ratioP1;P1;durP2;ratioP2;P2;SDS_P1;SDS_P2;PMS_P1;PMS_P2;Temp;Humidity;BMP_temperature;BMP_pressure;BME280_temperature;BME280_humidity;BME280_pressure;Samples;Min_cycle;Max_cycle;Signal;HPM_P1;HPM_P2
2022/10/25 00:00:48;;;;;;;2.07;1.73;;;;;;;23.26;62.49;97620.53;5050038;28;20295;-31
2022/10/25 00:03:15;;;;;;;1.77;1.67;;;;;;;23.28;63.03;97628.28;5050884;28;20224;-31
2022/10/25 00:05:41;;;;;;;2.33;1.80;;;;;;;23.27;62.21;97626.53;5050494;28;20687;-31
2022/10/25 00:08:08;;;;;;;2.00;1.57;;;;;;;23.19;62.63;97616.06;5052717;28;20221;-30
2022/10/25 00:10:35;;;;;;;1.80;1.70;;;;;;;23.27;62.66;97631.66;5067236;28;20216;-32
2022/10/25 00:13:01;;;;;;;1.70;1.60;;;;;;;23.27;62.80;97631.66;5053299;28;20232;-32
2022/10/25 00:15:28;;;;;;;2.50;1.80;;;;;;;23.26;62.53;97638.50;5049183;28;20332;-31
2022/10/25 00:17:55;;;;;;;1.70;1.60;;;;;;;23.27;62.39;97639.38;5058454;28;20261;-31
2022/10/25 00:20:22;;;;;;;1.70;1.60;;;;;;;23.27;62.86;97635.09;5050423;28;20232;-31
2022/10/25 00:22:48;;;;;;;2.33;1.90;;;;;;;23.25;62.50;97634.19;5051717;28;20201;-31
2022/10/25 00:25:15;;;;;;;2.40;1.63;;;;;;;23.27;62.50;97631.66;5050458;28;20671;-31
2022/10/25 00:27:41;;;;;;;1.50;1.40;;;;;;;23.27;62.39;97634.25;5050552;28;20208;-31
2022/10/25 00:30:09;;;;;;;1.80;1.50;;;;;;;23.27;62.33;97635.09;5043779;28;20216;-31
2022/10/25 00:32:35;;;;;;;1.70;1.40;;;;;;;23.27;62.09;97629.94;5050064;28;20232;-31
2022/10/25 00:35:02;;;;;;;2.67;1.70;;;;;;;23.27;62.26;97634.25;5051000;28;20250;-31
2022/10/25 00:37:29;;;;;;;2.03;1.73;;;;;;;23.27;62.24;97636.81;5049841;28;20690;-31
2022/10/25 00:39:55;;;;;;;1.60;1.50;;;;;;;23.26;62.35;97630.78;5052517;28;20221;-31
2022/10/25 00:42:23;;;;;;;1.70;1.30;;;;;;;23.26;61.99;97641.06;5054780;28;20704;-31
2022/10/25 00:44:55;;;;;;;1.83;1.63;;;;;;;23.27;62.09;97644.50;5049851;28;20200;-31
2022/10/25 00:47:21;;;;;;;1.70;1.60;;;;;;;23.27;62.10;97647.06;5050549;28;20207;-31
2022/10/25 00:50:20;;;;;;;4.00;1.73;;;;;;;23.27;61.99;97645.34;5050372;28;20224;-31
2022/10/25 00:52:57;;;;;;;3.10;1.20;;;;;;;23.26;62.04;97643.63;5050649;28;20224;-31
2022/10/25 00:55:24;;;;;;;3.57;1.50;;;;;;;23.08;62.07;97621.75;5046799;28;20204;-31
2022/10/25 00:57:57;;;;;;;2.43;1.50;;;;;;;23.26;61.79;97650.44;5046647;28;20208;-31
2022/10/25 01:00:24;;;;;;;1.70;1.50;;;;;;;23.25;61.97;97647.03;5046585;28;20225;-31
2022/10/25 01:02:50;;;;;;;1.87;1.60;;;;;;;23.26;61.83;97641.06;5047654;28;20204;-31
2022/10/25 01:05:17;;;;;;;1.47;1.37;;;;;;;23.26;61.94;97645.31;5060160;28;20249;-31
2022/10/25 01:07:44;;;;;;;1.93;1.50;;;;;;;23.26;61.87;97651.31;5028635;28;20232;-31
2022/10/25 01:10:11;;;;;;;1.37;1.23;;;;;;;23.25;61.90;97652.16;5047861;28;20286;-31
2022/10/25 01:12:37;;;;;;;1.70;1.60;;;;;;;23.25;61.63;97648.72;5049800;28;20225;-31
2022/10/25 01:15:04;;;;;;;1.50;1.40;;;;;;;23.24;61.82;97649.56;5056153;28;20615;-31
2022/10/25 01:17:37;;;;;;;3.17;1.87;;;;;;;23.25;61.65;97657.28;5049145;28;20693;-31
2022/10/25 01:20:41;;;;;;;2.50;1.60;;;;;;;23.25;61.69;97646.16;5059979;28;20228;-31
2022/10/25 01:23:26;;;;;;;1.93;1.40;;;;;;;23.17;61.56;97637.34;5050123;28;20214;-31
2022/10/25 01:25:55;;;;;;;1.27;1.17;;;;;;;23.24;61.57;97645.25;5047532;28;20200;-31
2022/10/25 01:28:52;;;;;;;1.43;1.30;;;;;;;23.24;61.69;97644.41;5052399;28;20200;-31
2022/10/25 01:31:49;;;;;;;2.07;1.50;;;;;;;23.24;61.69;97645.25;5053150;28;20201;-33
2022/10/25 01:34:38;;;;;;;1.97;1.47;;;;;;;23.24;61.30;97650.41;5046262;28;20205;-31
2022/10/25 01:37:27;;;;;;;1.40;1.30;;;;;;;23.15;61.42;97628.78;5031612;28;20227;-31
2022/10/25 01:40:09;;;;;;;1.53;1.30;;;;;;;23.23;61.44;97633.25;5034018;28;20235;-31
2022/10/25 01:43:10;;;;;;;1.90;1.30;;;;;;;23.23;61.35;97637.50;5049078;28;20200;-31
2022/10/25 01:45:51;;;;;;;1.10;1.10;;;;;;;23.23;61.27;97645.19;5028837;28;20203;-31
2022/10/25 01:48:20;;;;;;;1.40;1.30;;;;;;;23.17;61.61;97643.34;5049084;28;20591;-31
2022/10/25 01:50:47;;;;;;;1.30;1.20;;;;;;;23.22;61.38;97640.91;5029814;28;20209;-31
2022/10/25 01:53:13;;;;;;;1.53;1.43;;;;;;;23.21;61.35;97645.16;5023568;28;20224;-31
2022/10/25 01:55:50;;;;;;;2.10;1.30;;;;;;;23.21;61.25;97628.94;5052959;28;20217;-32
2022/10/25 01:58:43;;;;;;;2.17;1.33;;;;;;;23.24;61.09;97642.69;5029115;28;20459;-31
2022/10/25 02:01:13;;;;;;;8.50;1.40;;;;;;;23.21;61.02;97632.34;5047649;28;20623;-31
2022/10/25 02:03:42;;;;;;;1.40;1.30;;;;;;;23.23;60.90;97647.75;5047803;28;20205;-31
2022/10/25 02:06:25;;;;;;;1.90;1.30;;;;;;;23.23;60.76;97643.50;5043400;28;20588;-31
2022/10/25 02:08:52;;;;;;;2.00;1.50;;;;;;;23.23;60.55;97643.50;5050094;28;20227;-31
2022/10/25 02:11:23;;;;;;;1.43;1.33;;;;;;;23.16;60.36;97626.25;5048794;28;20671;-31
2022/10/25 02:14:21;;;;;;;1.50;1.40;;;;;;;23.21;60.57;97634.06;5034155;28;20213;-31
2022/10/25 02:17:04;;;;;;;1.40;1.30;;;;;;;23.21;60.37;97639.19;5032015;28;20216;-31
2022/10/25 02:19:33;;;;;;;1.57;1.20;;;;;;;23.20;60.10;97640.88;5053975;28;20730;-31
2022/10/25 02:22:00;;;;;;;1.57;1.47;;;;;;;23.20;60.24;97638.31;5061772;28;20682;-31
2022/10/25 02:24:27;;;;;;;1.40;1.30;;;;;;;23.20;59.99;97642.56;5027564;28;20205;-31
2022/10/25 02:26:53;;;;;;;1.30;1.20;;;;;;;23.20;59.85;97640.00;5039938;28;20693;-31
2022/10/25 02:29:20;;;;;;;1.50;1.40;;;;;;;23.20;59.63;97634.88;5048391;28;20225;-31
2022/10/25 02:31:46;;;;;;;1.63;1.33;;;;;;;23.19;59.58;97634.00;5031556;28;20225;-31
2022/10/25 02:34:13;;;;;;;1.50;1.40;;;;;;;23.20;59.91;97640.00;5047289;28;20212;-31
2022/10/25 02:36:39;;;;;;;1.30;1.20;;;;;;;23.18;59.53;97637.38;5053291;28;20217;-31
2022/10/25 02:39:06;;;;;;;1.80;1.40;;;;;;;23.08;59.53;97630.31;5053813;28;20715;-31
2022/10/25 02:41:33;;;;;;;2.80;1.50;;;;;;;23.16;59.47;97643.31;5043231;28;20205;-31
2022/10/25 02:43:59;;;;;;;2.83;1.20;;;;;;;23.19;59.33;97651.09;5048768;28;20208;-31
2022/10/25 02:46:26;;;;;;;3.10;1.37;;;;;;;23.19;59.41;97658.78;5045108;28;20208;-31
2022/10/25 02:48:52;;;;;;;1.40;1.30;;;;;;;23.17;59.44;97648.50;5047733;28;20315;-31
2022/10/25 02:51:19;;;;;;;1.40;1.30;;;;;;;23.15;59.47;97642.44;5050513;28;20686;-31
2022/10/25 02:53:45;;;;;;;1.60;1.50;;;;;;;23.16;59.33;97653.56;5046827;28;20232;-31
2022/10/25 02:56:16;;;;;;;2.00;1.50;;;;;;;23.18;59.27;97649.38;5048696;28;20209;-31
2022/10/25 02:58:43;;;;;;;2.23;1.50;;;;;;;23.18;59.20;97649.38;5048786;28;20243;-31
2022/10/25 03:01:10;;;;;;;2.47;1.50;;;;;;;23.15;59.21;97655.25;5054373;28;20200;-31
2022/10/25 03:03:37;;;;;;;3.63;1.27;;;;;;;23.07;59.14;97637.97;5051138;28;20277;-31
2022/10/25 03:06:03;;;;;;;1.30;1.20;;;;;;;23.17;58.96;97656.19;5043746;28;20208;-31
2022/10/25 03:08:30;;;;;;;1.60;1.50;;;;;;;23.17;58.83;97663.00;5055930;28;20205;-31
2022/10/25 03:10:56;;;;;;;3.53;1.57;;;;;;;23.17;59.29;97665.56;5059138;28;20213;-31
2022/10/25 03:13:23;;;;;;;1.67;1.37;;;;;;;23.18;59.16;97672.44;5066473;28;20254;-31
2022/10/25 03:15:50;;;;;;;2.10;1.57;;;;;;;23.17;59.11;97661.31;5062462;28;20212;-31
2022/10/25 03:18:16;;;;;;;1.57;1.47;;;;;;;23.14;59.63;97653.53;5061091;28;20212;-31
2022/10/25 03:20:43;;;;;;;1.60;1.50;;;;;;;23.17;59.14;97663.00;5040128;28;20221;-31
2022/10/25 03:23:09;;;;;;;2.37;1.60;;;;;;;23.16;59.05;97661.25;5052948;28;20201;-31
2022/10/25 03:25:36;;;;;;;1.77;1.50;;;;;;;22.79;59.06;97599.63;5046988;28;20474;-31
2022/10/25 03:28:02;;;;;;;1.60;1.50;;;;;;;23.17;58.86;97657.88;5052927;28;20212;-31
2022/10/25 03:30:29;;;;;;;1.67;1.57;;;;;;;23.14;58.82;97661.22;5054647;28;20651;-31
2022/10/25 03:32:56;;;;;;;1.80;1.40;;;;;;;23.14;58.83;97657.78;5048134;28;20723;-31
2022/10/25 03:35:22;;;;;;;3.00;1.70;;;;;;;23.16;58.52;97667.28;5051228;28;20204;-31
2022/10/25 03:37:49;;;;;;;2.47;1.70;;;;;;;23.15;58.63;97680.91;5045757;28;20197;-31
2022/10/25 03:40:16;;;;;;;2.07;1.57;;;;;;;23.15;58.56;97683.47;5061618;28;21073;-31
2022/10/25 03:42:43;;;;;;;1.67;1.47;;;;;;;23.15;58.47;97700.56;5061561;28;20208;-31
2022/10/25 03:45:09;;;;;;;1.60;1.43;;;;;;;23.16;58.46;97694.59;5064174;28;20205;-31
2022/10/25 03:47:36;;;;;;;3.17;1.60;;;;;;;23.15;58.19;97693.72;5043747;28;20201;-31
2022/10/25 03:50:04;;;;;;;2.23;1.50;;;;;;;23.15;58.04;97695.44;5055320;28;20224;-31
2022/10/25 03:52:30;;;;;;;3.27;1.67;;;;;;;23.13;57.90;97686.84;5059618;28;20220;-31
2022/10/25 03:54:57;;;;;;;1.63;1.50;;;;;;;23.15;57.68;97690.31;5066516;28;20201;-31
2022/10/25 03:57:23;;;;;;;1.67;1.57;;;;;;;23.15;58.01;97690.31;5056974;28;20209;-31
2022/10/25 03:59:50;;;;;;;1.70;1.60;;;;;;;23.14;57.92;97699.69;5054211;28;20229;-31
2022/10/25 04:02:16;;;;;;;2.07;1.70;;;;;;;23.14;57.87;97699.69;5059112;28;20196;-31
2022/10/25 04:04:43;;;;;;;2.00;1.80;;;;;;;23.14;57.77;97699.69;5062180;28;20216;-31
2022/10/25 04:07:09;;;;;;;2.03;1.93;;;;;;;23.14;57.81;97706.50;5067162;28;20210;-31
2022/10/25 04:09:36;;;;;;;2.20;2.00;;;;;;;23.14;57.91;97701.38;5057125;28;20217;-31
2022/10/25 04:12:02;;;;;;;2.50;2.30;;;;;;;23.15;57.74;97705.69;5054263;28;20215;-31
2022/10/25 04:14:29;;;;;;;3.53;2.00;;;;;;;23.14;57.67;97702.25;5051315;28;20212;-31
2022/10/25 04:16:55;;;;;;;2.50;2.30;;;;;;;23.15;57.67;97695.44;5050939;28;20205;-31
2022/10/25 04:19:22;;;;;;;4.67;2.37;;;;;;;23.15;57.80;97701.41;5053869;28;20221;-31
2022/10/25 04:21:48;;;;;;;2.63;2.30;;;;;;;23.15;57.56;97695.44;5052213;28;20200;-31
2022/10/25 04:24:15;;;;;;;2.70;2.30;;;;;;;23.15;57.36;97693.72;5050530;28;20193;-31
2022/10/25 04:26:42;;;;;;;2.87;2.30;;;;;;;23.15;57.45;97695.44;5051975;28;20215;-31
2022/10/25 04:29:09;;;;;;;2.40;2.20;;;;;;;23.15;57.73;97695.44;5043781;28;20236;-31
2022/10/25 04:31:35;;;;;;;4.17;2.83;;;;;;;23.15;57.59;97695.44;5046789;28;20204;-31
2022/10/25 04:34:02;;;;;;;2.20;2.00;;;;;;;23.15;58.14;97696.28;5044303;28;20220;-31
2022/10/25 04:36:28;;;;;;;4.03;2.20;;;;;;;23.13;57.90;97690.28;5048148;28;20204;-31
2022/10/25 04:38:55;;;;;;;4.27;2.47;;;;;;;23.15;57.82;97698.00;5041002;28;20222;-31
2022/10/25 04:41:21;;;;;;;2.87;2.43;;;;;;;23.14;57.92;97701.38;5046346;28;20204;-31
2022/10/25 04:43:49;;;;;;;2.80;2.50;;;;;;;23.15;57.66;97693.72;5047410;28;20211;-31
2022/10/25 04:46:16;;;;;;;2.80;2.17;;;;;;;23.15;57.39;97693.72;5059300;28;20200;-31
2022/10/25 04:48:42;;;;;;;2.50;2.30;;;;;;;23.15;54.97;97698.84;5063439;28;20216;-31
2022/10/25 04:51:09;;;;;;;2.60;2.40;;;;;;;23.13;52.96;97697.97;5040935;28;20209;-31
2022/10/25 04:53:35;;;;;;;2.70;2.10;;;;;;;23.12;51.66;97698.78;5041095;28;20221;-31
2022/10/25 04:56:10;;;;;;;4.13;2.20;;;;;;;23.10;50.72;97705.56;5046079;28;20204;-31
2022/10/25 04:58:36;;;;;;;2.70;2.40;;;;;;;23.07;50.27;97702.91;5044149;28;20668;-31
2022/10/25 05:01:08;;;;;;;3.40;2.80;;;;;;;23.06;49.83;97706.31;5041877;28;20209;-31
2022/10/25 05:03:34;;;;;;;3.47;2.70;;;;;;;23.02;49.92;97703.63;5050461;28;20197;-31
2022/10/25 05:06:08;;;;;;;2.60;2.40;;;;;;;22.98;49.26;97701.81;5052101;28;20615;-31
2022/10/25 05:08:38;;;;;;;3.30;2.13;;;;;;;22.96;48.90;97709.47;5063312;28;20234;-31
2022/10/25 05:11:06;;;;;;;2.70;2.50;;;;;;;22.93;48.66;97704.25;5057526;28;20558;-31
2022/10/25 05:13:33;;;;;;;3.63;2.80;;;;;;;22.91;48.85;97715.28;5062279;28;20231;-31
2022/10/25 05:16:00;;;;;;;3.93;3.30;;;;;;;22.88;48.87;97716.06;5061855;28;20222;-31
2022/10/25 05:18:26;;;;;;;3.90;3.00;;;;;;;22.85;49.42;97712.53;5063898;28;20229;-31
2022/10/25 05:20:57;;;;;;;5.47;3.10;;;;;;;22.82;49.17;97713.34;5051579;28;20200;-31
2022/10/25 05:23:24;;;;;;;3.57;3.27;;;;;;;22.80;49.27;97724.38;5059984;28;20218;-31
2022/10/25 05:26:19;;;;;;;5.20;2.90;;;;;;;22.78;49.35;97723.47;5048380;28;20219;-31
2022/10/25 05:28:47;;;;;;;3.80;3.00;;;;;;;22.75;49.21;97737.06;5054154;28;20706;-31
2022/10/25 05:31:17;;;;;;;4.50;3.30;;;;;;;22.68;49.08;97727.47;5050261;28;20208;-31
2022/10/25 05:33:44;;;;;;;6.53;3.23;;;;;;;22.70;48.84;97740.31;5049595;28;20221;-31
2022/10/25 05:36:11;;;;;;;4.80;2.83;;;;;;;22.66;48.70;97731.69;5049487;28;20216;-31
2022/10/25 05:38:37;;;;;;;6.07;3.97;;;;;;;22.64;48.78;97735.00;5050852;28;20216;-31
2022/10/25 05:41:04;;;;;;;7.77;3.70;;;;;;;22.59;48.79;97737.44;5050324;28;20205;-31
2022/10/25 05:43:31;;;;;;;4.83;3.50;;;;;;;22.62;48.85;97744.38;5056385;28;20205;-31
2022/10/25 05:46:20;;;;;;;4.53;3.77;;;;;;;22.59;48.73;97744.28;5049345;28;20213;-31
2022/10/25 05:48:47;;;;;;;4.37;3.90;;;;;;;22.57;48.53;97745.94;5049424;28;20267;-31
2022/10/25 05:51:14;;;;;;;6.23;3.70;;;;;;;22.57;48.33;97748.47;5049210;28;20283;-31
2022/10/25 05:54:00;;;;;;;6.63;3.50;;;;;;;22.52;48.62;97745.78;5049282;28;20658;-31
2022/10/25 05:56:27;;;;;;;4.90;3.83;;;;;;;22.52;48.84;97750.03;5048995;28;20602;-31
2022/10/25 05:58:56;;;;;;;6.70;3.70;;;;;;;22.53;49.16;97756.91;5048878;28;20236;-31
2022/10/25 06:01:22;;;;;;;3.90;3.40;;;;;;;22.50;49.38;97762.78;5049914;28;20202;-31
2022/10/25 06:03:50;;;;;;;6.30;3.70;;;;;;;22.53;49.53;97767.16;5065104;28;20675;-31
2022/10/25 06:06:16;;;;;;;5.07;3.33;;;;;;;22.53;49.70;97767.16;5059191;28;20215;-31
2022/10/25 06:08:43;;;;;;;5.03;3.20;;;;;;;22.53;49.90;97767.16;5065780;28;20232;-31
2022/10/25 06:11:17;;;;;;;4.20;3.00;;;;;;;22.53;49.78;97768.00;5043486;28;20202;-31
2022/10/25 06:13:43;;;;;;;6.80;3.03;;;;;;;22.53;49.73;97762.88;5042062;28;20311;-31
2022/10/25 06:16:11;;;;;;;8.17;3.40;;;;;;;22.55;49.98;97766.38;5044457;28;20769;-31
2022/10/25 06:18:38;;;;;;;3.37;2.80;;;;;;;22.55;50.04;97784.31;5038715;28;20214;-31
2022/10/25 06:21:15;;;;;;;3.60;2.90;;;;;;;22.55;50.37;97774.06;5047660;28;20233;-31
2022/10/25 06:23:43;;;;;;;4.17;2.80;;;;;;;22.56;50.63;97778.34;5048041;28;20204;-31
2022/10/25 06:26:14;;;;;;;3.00;2.70;;;;;;;22.57;50.94;97774.97;5048727;28;20235;-31
2022/10/25 06:28:41;;;;;;;3.00;2.70;;;;;;;22.58;51.01;97786.94;5048686;28;20279;-31
2022/10/25 06:31:15;;;;;;;7.60;3.00;;;;;;;22.56;51.05;97780.06;5048687;28;20201;-31
2022/10/25 06:33:42;;;;;;;3.97;2.23;;;;;;;22.60;51.22;97795.56;5049150;28;20216;-31
2022/10/25 06:36:14;;;;;;;3.67;2.60;;;;;;;22.61;51.31;97798.97;5048856;28;20200;-31
2022/10/25 06:38:40;;;;;;;2.63;2.43;;;;;;;22.54;51.19;97787.69;5053313;28;20204;-31
2022/10/25 06:41:10;;;;;;;3.70;2.77;;;;;;;22.62;51.29;97801.59;5056812;28;20671;-31
2022/10/25 06:43:37;;;;;;;2.80;2.50;;;;;;;22.64;51.38;97794.81;5052689;28;20197;-31
2022/10/25 06:46:17;;;;;;;3.03;2.47;;;;;;;22.66;51.67;97794.88;5052400;28;20201;-31
2022/10/25 06:48:43;;;;;;;4.30;2.60;;;;;;;22.68;51.80;97811.16;5037821;28;20256;-31
2022/10/25 06:51:10;;;;;;;2.93;2.60;;;;;;;22.69;51.62;97802.63;5067638;28;20201;-31
2022/10/25 06:53:36;;;;;;;3.03;2.73;;;;;;;22.72;51.82;97810.41;5057465;28;20220;-31
2022/10/25 06:56:04;;;;;;;3.23;2.60;;;;;;;22.70;51.72;97797.56;5059387;28;20205;-31
2022/10/25 06:58:33;;;;;;;3.77;2.70;;;;;;;22.73;51.80;97801.88;5042002;28;20732;-31
2022/10/25 07:01:07;;;;;;;6.03;2.40;;;;;;;22.72;52.04;97808.72;5044911;28;20663;-31
2022/10/25 07:03:34;;;;;;;4.80;2.83;;;;;;;22.73;51.91;97807.00;5052659;28;20235;-31
2022/10/25 07:06:08;;;;;;;3.33;2.70;;;;;;;22.74;52.37;97806.22;5044263;28;20205;-31
2022/10/25 07:08:35;;;;;;;11.43;2.57;;;;;;;22.68;52.67;97800.91;5053833;28;20211;-31
2022/10/25 07:11:02;;;;;;;3.90;2.90;;;;;;;22.74;52.82;97826.72;5045705;28;20301;-31
2022/10/25 07:13:29;;;;;;;4.53;3.03;;;;;;;22.76;52.66;97820.78;5048425;28;20224;-31
2022/10/25 07:16:06;;;;;;;4.00;2.47;;;;;;;22.75;52.67;97808.81;5049000;28;20213;-31
2022/10/25 07:18:33;;;;;;;3.60;2.60;;;;;;;22.76;52.85;97817.34;5051487;28;20686;-31
2022/10/25 07:21:03;;;;;;;2.60;2.40;;;;;;;22.78;52.98;97818.28;5049186;28;20356;-31
2022/10/25 07:23:30;;;;;;;3.50;2.70;;;;;;;22.78;52.80;97816.59;5054201;28;20205;-31
2022/10/25 07:25:56;;;;;;;4.00;3.00;;;;;;;22.79;52.91;97820.88;5056074;28;20204;-31
2022/10/25 07:28:23;;;;;;;6.37;3.20;;;;;;;22.79;52.93;97831.13;5056031;28;20607;-31
2022/10/25 07:30:50;;;;;;;5.63;2.80;;;;;;;22.75;52.98;97813.06;5051951;28;20224;-31
2022/10/25 07:33:17;;;;;;;2.90;2.50;;;;;;;22.81;53.10;97815.81;5047765;28;20620;-31
2022/10/25 07:35:48;;;;;;;3.67;2.83;;;;;;;22.81;53.04;97816.69;5039330;28;20206;-31
2022/10/25 07:38:34;;;;;;;4.43;2.70;;;;;;;22.72;52.87;97801.03;5043498;28;20549;-31
2022/10/25 07:41:01;;;;;;;3.87;2.80;;;;;;;22.81;52.99;97815.81;5041026;28;20204;-31
2022/10/25 07:43:27;;;;;;;3.57;3.03;;;;;;;22.81;53.02;97814.13;5045088;28;20196;-31
2022/10/25 07:45:54;;;;;;;7.23;2.93;;;;;;;22.82;53.18;97817.53;5048644;28;20682;-31
2022/10/25 07:48:21;;;;;;;3.73;2.93;;;;;;;22.82;53.28;97820.97;5037963;28;20201;-31
2022/10/25 07:50:47;;;;;;;2.90;2.27;;;;;;;22.80;53.41;97822.63;5047494;28;20228;-31
2022/10/25 07:53:14;;;;;;;3.50;2.97;;;;;;;22.83;53.50;97830.38;5044702;28;20733;-31
2022/10/25 07:55:40;;;;;;;3.70;2.50;;;;;;;22.84;53.64;97836.38;5049649;28;20208;-31
2022/10/25 07:58:08;;;;;;;3.57;2.70;;;;;;;22.84;53.72;97831.28;5050137;28;20518;-31
2022/10/25 08:00:35;;;;;;;4.07;2.40;;;;;;;22.83;53.80;97832.94;5053831;28;20224;-31
2022/10/25 08:03:02;;;;;;;3.63;2.87;;;;;;;22.84;53.95;97834.72;5050754;28;20200;-31
2022/10/25 08:05:29;;;;;;;5.57;2.50;;;;;;;22.84;54.01;97828.69;5051096;28;20606;-31
2022/10/25 08:07:55;;;;;;;2.40;2.20;;;;;;;22.84;54.09;97827.03;5053493;28;20208;-31
2022/10/25 08:10:22;;;;;;;2.50;2.30;;;;;;;22.85;54.22;97820.19;5047540;28;20253;-31
2022/10/25 08:12:48;;;;;;;2.60;2.40;;;;;;;22.85;54.00;97822.75;5048127;28;20227;-31
2022/10/25 08:15:15;;;;;;;2.43;2.23;;;;;;;22.84;54.31;97814.22;5051226;28;20337;-31
2022/10/25 08:17:41;;;;;;;2.50;2.10;;;;;;;22.85;54.71;97823.63;5053105;28;20209;-31
2022/10/25 08:20:08;;;;;;;2.93;2.10;;;;;;;22.86;54.49;97827.06;5037117;28;20222;-31
2022/10/25 08:22:35;;;;;;;4.93;2.50;;;;;;;22.87;54.60;97836.47;5047800;28;20204;-31
2022/10/25 08:25:03;;;;;;;2.43;2.23;;;;;;;22.78;54.62;97821.72;5051408;28;20591;-31
2022/10/25 08:27:31;;;;;;;4.13;2.40;;;;;;;22.87;54.83;97839.03;5056016;28;20258;-31
2022/10/25 08:29:57;;;;;;;2.33;2.07;;;;;;;22.82;54.82;97832.91;5048847;28;20225;-31
2022/10/25 08:32:24;;;;;;;2.57;2.00;;;;;;;22.87;54.57;97845.06;5051086;28;20714;-31
2022/10/25 08:34:50;;;;;;;3.70;2.27;;;;;;;22.87;54.76;97839.03;5059262;28;20232;-31
2022/10/25 08:37:17;;;;;;;2.23;2.00;;;;;;;22.85;54.89;97833.00;5052157;28;20208;-31
2022/10/25 08:39:43;;;;;;;1.97;1.80;;;;;;;22.88;54.90;97841.66;5050765;28;20631;-31
2022/10/25 08:42:16;;;;;;;2.40;2.20;;;;;;;22.87;55.11;97844.16;5050369;28;20201;-31
2022/10/25 08:44:50;;;;;;;2.17;1.80;;;;;;;22.84;55.03;97839.84;5030102;28;20201;-31
2022/10/25 08:47:33;;;;;;;2.47;2.10;;;;;;;22.89;55.08;97847.66;5050027;28;20200;-31
2022/10/25 08:50:09;;;;;;;2.43;2.07;;;;;;;22.89;55.24;97843.38;5061106;28;20231;-31
2022/10/25 08:52:44;;;;;;;2.60;1.80;;;;;;;22.90;55.13;97852.81;5051579;28;20211;-31
2022/10/25 08:55:35;;;;;;;2.60;1.93;;;;;;;22.90;55.50;97850.25;5032796;28;20657;-31
2022/10/25 08:58:25;;;;;;;1.73;1.63;;;;;;;22.90;55.29;97842.56;5048025;28;20581;-31
2022/10/25 09:00:51;;;;;;;2.67;1.67;;;;;;;22.91;55.23;97846.00;5049230;28;20205;-31
2022/10/25 09:03:24;;;;;;;2.10;1.80;;;;;;;22.91;55.56;97840.84;5049714;28;20216;-31
2022/10/25 09:06:07;;;;;;;1.70;1.60;;;;;;;22.91;55.53;97846.88;5048682;28;20597;-31
2022/10/25 09:08:49;;;;;;;1.60;1.50;;;;;;;22.92;55.60;97842.63;5051064;28;20208;-31
2022/10/25 09:11:40;;;;;;;2.20;1.80;;;;;;;22.91;55.87;97846.88;5062151;28;20204;-31
2022/10/25 09:14:40;;;;;;;4.90;1.90;;;;;;;22.91;55.76;97834.06;5055993;28;20230;-31
2022/10/25 09:17:24;;;;;;;2.67;1.90;;;;;;;22.91;55.93;97834.06;5044623;28;20578;-31
2022/10/25 09:20:08;;;;;;;1.83;1.60;;;;;;;22.92;56.02;97833.22;5055318;28;20227;-31
2022/10/25 09:22:47;;;;;;;1.97;1.70;;;;;;;22.92;55.85;97827.25;5044456;28;20200;-31
2022/10/25 09:25:24;;;;;;;2.07;1.83;;;;;;;22.92;55.68;97833.22;5054354;28;20204;-31
2022/10/25 09:27:59;;;;;;;3.13;1.63;;;;;;;22.91;55.79;97826.38;5047154;28;20207;-31
2022/10/25 09:30:26;;;;;;;1.93;1.70;;;;;;;22.92;55.77;97832.38;5059421;28;20226;-31
2022/10/25 09:32:55;;;;;;;3.70;1.80;;;;;;;22.93;55.80;97832.41;5063740;28;20211;-31
2022/10/25 09:35:29;;;;;;;6.20;3.10;;;;;;;22.89;56.03;97827.16;5055906;28;20225;-31
2022/10/25 09:38:20;;;;;;;12.10;4.93;;;;;;;22.94;55.92;97833.25;5062920;28;20208;-31
2022/10/25 09:40:49;;;;;;;13.77;5.20;;;;;;;22.93;56.07;97832.41;5056766;28;20730;-31
2022/10/25 09:43:21;;;;;;;14.50;4.27;;;;;;;22.94;56.08;97833.25;5052473;28;20209;-31
2022/10/25 09:45:50;;;;;;;12.40;4.80;;;;;;;22.93;56.08;97834.09;5048091;28;20205;-31
2022/10/25 09:48:24;;;;;;;15.53;4.60;;;;;;;22.93;56.20;97831.53;5047817;28;20197;-31
2022/10/25 09:50:54;;;;;;;10.50;4.30;;;;;;;22.88;56.18;97827.97;5049015;28;20201;-31
2022/10/25 09:53:20;;;;;;;8.80;4.10;;;;;;;22.94;56.29;97840.94;5029593;28;20212;-31
2022/10/25 09:55:51;;;;;;;10.57;4.50;;;;;;;22.91;56.48;97839.19;5064789;28;20279;-31
2022/10/25 09:58:37;;;;;;;9.23;3.97;;;;;;;22.93;56.34;97845.22;5037388;28;20201;-31
2022/10/25 10:01:10;;;;;;;10.67;4.33;;;;;;;22.94;56.42;97843.50;5042686;28;20204;-31
2022/10/25 10:03:37;;;;;;;8.33;3.67;;;;;;;22.95;56.51;97842.72;5041515;28;20200;-31
2022/10/25 10:06:16;;;;;;;9.87;3.70;;;;;;;22.93;56.53;97846.91;5034912;28;20223;-31
2022/10/25 10:08:48;;;;;;;9.17;3.90;;;;;;;22.94;56.51;97846.94;5051410;28;20215;-31
2022/10/25 10:11:15;;;;;;;7.93;3.60;;;;;;;22.75;56.71;97813.94;5036953;28;20203;-31
2022/10/25 10:14:03;;;;;;;8.53;3.57;;;;;;;22.94;56.72;97846.94;5030868;28;20725;-31
2022/10/25 10:16:38;;;;;;;9.87;3.87;;;;;;;22.87;56.66;97826.22;5050938;28;20300;-31
2022/10/25 10:19:21;;;;;;;7.70;3.70;;;;;;;22.95;56.62;97842.72;5041587;28;20254;-31
2022/10/25 10:21:48;;;;;;;8.33;3.33;;;;;;;22.90;56.65;97829.75;5063434;28;20204;-31
2022/10/25 10:24:26;;;;;;;8.63;3.80;;;;;;;22.96;56.58;97847.00;5058486;28;20203;-31
2022/10/25 10:26:56;;;;;;;7.43;3.47;;;;;;;22.96;56.66;97842.75;5058098;28;20204;-31
2022/10/25 10:29:33;;;;;;;6.77;3.40;;;;;;;22.97;56.71;97841.03;5053366;28;20734;-31
2022/10/25 10:32:01;;;;;;;6.67;3.30;;;;;;;22.97;56.82;97838.47;5030959;28;20208;-31
2022/10/25 10:34:30;;;;;;;7.03;3.10;;;;;;;22.96;56.88;97840.19;5046145;28;20221;-31
2022/10/25 10:37:20;;;;;;;5.27;3.07;;;;;;;22.97;56.84;97841.91;5047401;28;20205;-31
2022/10/25 10:39:57;;;;;;;6.63;3.27;;;;;;;22.96;56.83;97835.06;5064783;28;20726;-31
2022/10/25 10:42:33;;;;;;;7.67;3.13;;;;;;;22.97;56.95;97836.78;5056039;28;20577;-31
2022/10/25 10:45:12;;;;;;;5.83;2.53;;;;;;;22.98;56.97;97829.97;5058307;28;20315;-31
2022/10/25 10:47:43;;;;;;;6.30;2.80;;;;;;;22.98;56.96;97829.97;5067209;28;20204;-31
2022/10/25 10:50:24;;;;;;;4.63;2.63;;;;;;;22.96;57.14;97826.50;5063798;28;20249;-31
2022/10/25 10:53:00;;;;;;;7.37;2.87;;;;;;;22.97;57.08;97821.41;5065418;28;20208;-31
2022/10/25 10:55:42;;;;;;;7.00;2.83;;;;;;;22.98;57.09;97817.16;5045704;28;20256;-31
2022/10/25 10:58:23;;;;;;;4.93;2.50;;;;;;;22.97;57.13;97820.53;5034446;28;20219;-31
2022/10/25 11:01:04;;;;;;;4.57;2.30;;;;;;;22.96;57.23;97819.69;5047466;28;20213;-31
2022/10/25 11:03:37;;;;;;;5.67;3.10;;;;;;;22.97;57.14;97811.16;5059467;28;20211;-31
2022/10/25 11:06:28;;;;;;;5.17;2.67;;;;;;;22.96;57.15;97812.00;5052700;28;20231;-31
2022/10/25 11:09:16;;;;;;;3.80;2.33;;;;;;;22.98;57.26;97804.34;5059577;28;20236;-31
2022/10/25 11:11:43;;;;;;;3.80;2.73;;;;;;;22.89;57.14;97793.84;5059482;28;20204;-31
2022/10/25 11:14:12;;;;;;;4.67;2.50;;;;;;;22.96;57.22;97804.31;5055919;28;20220;-31
2022/10/25 11:16:53;;;;;;;3.40;2.20;;;;;;;22.98;57.09;97802.63;5063897;28;20231;-31
2022/10/25 11:19:58;;;;;;;4.23;2.27;;;;;;;22.98;57.22;97797.50;5041797;28;20228;-31
2022/10/25 11:22:34;;;;;;;3.60;2.27;;;;;;;22.99;57.46;97806.06;5059815;28;20203;-31
2022/10/25 11:25:00;;;;;;;4.40;2.33;;;;;;;22.99;57.39;97808.63;5066088;28;20241;-31
2022/10/25 11:27:50;;;;;;;3.57;2.27;;;;;;;22.94;57.36;97792.25;5066110;28;20719;-31
2022/10/25 11:30:18;;;;;;;3.33;1.97;;;;;;;22.93;57.37;97786.28;5055506;28;20701;-31
2022/10/25 11:32:51;;;;;;;4.60;2.10;;;;;;;22.99;57.46;97788.13;5052288;28;20204;-30
2022/10/25 11:35:36;;;;;;;2.90;2.17;;;;;;;22.99;57.23;97786.44;5061697;28;20224;-31
2022/10/25 11:38:21;;;;;;;4.10;2.37;;;;;;;22.98;57.36;97789.81;5069067;28;20226;-31
2022/10/25 11:41:20;;;;;;;4.97;2.20;;;;;;;22.99;57.45;97789.00;5069193;28;20220;-31
2022/10/25 11:44:11;;;;;;;3.80;2.30;;;;;;;22.98;57.37;97787.25;5058221;28;20209;-31
2022/10/25 11:46:45;;;;;;;2.73;2.10;;;;;;;22.98;57.56;97787.25;5056359;28;20212;-31
2022/10/25 11:49:20;;;;;;;4.37;2.33;;;;;;;22.99;57.49;97788.13;5049514;28;20316;-31
2022/10/25 11:52:05;;;;;;;2.80;2.00;;;;;;;22.99;57.49;97783.00;5057817;28;20207;-31
2022/10/25 11:54:40;;;;;;;3.20;2.30;;;;;;;22.94;57.53;97776.88;5058498;28;20303;-31